createdAt,value
2022-11-16T00:04:17.808Z,12.54
2022-11-16T00:09:21.751Z,12.55
2022-11-16T00:14:25.517Z,12.58
2022-11-16T00:19:27.825Z,12.57
2022-11-16T00:24:29.330Z,12.53
2022-11-16T00:29:30.687Z,12.47
2022-11-16T00:34:32.179Z,12.47
2022-11-16T00:39:33.738Z,12.48
2022-11-16T00:44:35.141Z,12.52
2022-11-16T00:49:37.693Z,12.42
2022-11-16T00:54:39.318Z,12.33
2022-11-16T00:59:40.642Z,12.32
2022-11-16T01:04:41.995Z,12.21
2022-11-16T01:09:43.319Z,12.26
2022-11-16T01:14:46.592Z,12.28
2022-11-16T01:19:47.801Z,12.34
2022-11-16T01:24:49.305Z,12.34
2022-11-16T01:29:50.547Z,12.14
2022-11-16T01:34:52.850Z,12.10
2022-11-16T01:39:53.998Z,12.13
2022-11-16T01:45:20.408Z,12.05
2022-11-16T01:50:22.195Z,12.02
2022-11-16T01:55:26.852Z,12.01
2022-11-16T02:00:28.088Z,12.17
2022-11-16T02:06:04.269Z,12.05
2022-11-16T02:11:05.415Z,11.95
2022-11-16T02:16:14.989Z,11.97
2022-11-16T02:21:30.700Z,11.90
2022-11-16T02:26:50.460Z,11.84
2022-11-16T02:32:23.207Z,11.84
2022-11-16T02:37:29.009Z,11.84
2022-11-16T02:42:55.506Z,11.87
2022-11-16T02:48:03.116Z,11.84
2022-11-16T02:53:04.359Z,11.64
2022-11-16T02:58:09.068Z,11.59
2022-11-16T03:03:34.640Z,11.05
2022-11-16T03:08:42.142Z,9.30
2022-11-16T03:13:44.681Z,9.69
2022-11-16T03:18:48.562Z,10.39
2022-11-16T03:23:51.021Z,10.78
2022-11-16T03:29:05.931Z,10.88
2022-11-16T03:34:15.596Z,10.96
2022-11-16T03:39:24.250Z,11.12
2022-11-16T03:44:26.792Z,9.63
2022-11-16T03:49:30.756Z,9.14
2022-11-16T03:54:31.890Z,9.92
2022-11-16T03:59:32.912Z,10.33
2022-11-16T04:04:52.870Z,10.33
2022-11-16T04:10:12.550Z,8.77
2022-11-16T04:15:32.436Z,8.52
2022-11-16T04:20:52.101Z,9.60
2022-11-16T04:25:53.684Z,10.00
2022-11-16T04:31:16.762Z,10.18
2022-11-16T04:36:37.208Z,10.26
2022-11-16T04:41:56.767Z,10.34
2022-11-16T04:47:16.397Z,10.33
2022-11-16T04:52:17.468Z,8.73
2022-11-16T04:57:18.503Z,8.14
2022-11-16T05:02:20.301Z,9.03
2022-11-16T05:07:21.817Z,9.60
2022-11-16T05:12:25.712Z,9.94
2022-11-16T05:17:27.517Z,9.62
2022-11-16T05:22:29.072Z,8.17
2022-11-16T05:27:31.397Z,8.47
2022-11-16T05:32:32.460Z,9.02
2022-11-16T05:37:33.452Z,9.42
2022-11-16T05:42:34.571Z,9.60
2022-11-16T05:47:35.617Z,9.76
2022-11-16T05:52:37.070Z,9.78
2022-11-16T05:57:38.083Z,9.86
2022-11-16T06:02:39.389Z,9.82
2022-11-16T06:07:40.821Z,8.59
2022-11-16T06:12:41.852Z,7.15
2022-11-16T06:17:42.938Z,7.78
2022-11-16T06:22:43.909Z,8.90
2022-11-16T06:27:45.037Z,9.17
2022-11-16T06:32:46.846Z,9.34
2022-11-16T06:37:51.911Z,9.24
2022-11-16T06:42:56.423Z,9.35
2022-11-16T06:47:57.495Z,9.42
2022-11-16T06:53:00.138Z,9.27
2022-11-16T06:58:01.205Z,9.14
2022-11-16T07:03:03.026Z,9.25
2022-11-16T07:08:05.245Z,9.04
2022-11-16T07:13:06.718Z,7.91
2022-11-16T07:18:08.447Z,9.53
2022-11-16T07:23:13.981Z,9.39
2022-11-16T07:28:15.626Z,7.98
2022-11-16T07:33:16.649Z,9.16
2022-11-16T07:38:18.338Z,9.96
2022-11-16T07:43:20.166Z,8.31
2022-11-16T07:48:21.341Z,8.41
2022-11-16T07:53:23.644Z,10.05
2022-11-16T07:58:26.363Z,9.68
2022-11-16T08:03:27.477Z,7.68
2022-11-16T08:08:29.294Z,8.76
2022-11-16T08:13:33.567Z,10.20
2022-11-16T08:18:36.662Z,9.25
2022-11-16T08:23:39.632Z,8.29
2022-11-16T08:28:42.947Z,9.59
2022-11-16T08:33:44.049Z,8.39
2022-11-16T08:38:45.805Z,8.68
2022-11-16T08:43:49.712Z,10.09
2022-11-16T08:48:54.388Z,9.73
2022-11-16T08:53:57.259Z,7.84
2022-11-16T08:58:59.438Z,8.93
2022-11-16T09:04:01.139Z,9.36
2022-11-16T09:09:03.186Z,7.31
2022-11-16T09:14:04.339Z,7.03
2022-11-16T09:19:05.505Z,9.08
2022-11-16T09:24:06.916Z,9.34
2022-11-16T09:29:13.703Z,7.39
2022-11-16T09:34:15.173Z,7.19
2022-11-16T09:39:30.690Z,9.17
2022-11-16T09:45:10.502Z,8.07
2022-11-16T09:50:22.761Z,7.68
2022-11-16T09:55:50.670Z,9.19
2022-11-16T10:01:18.919Z,7.55
2022-11-16T10:06:26.630Z,6.78
2022-11-16T10:11:52.473Z,8.71
2022-11-16T10:16:58.290Z,9.27
2022-11-16T10:22:37.147Z,7.50
2022-11-16T10:27:38.270Z,8.56
2022-11-16T10:33:09.808Z,7.86
2022-11-16T10:38:23.657Z,6.44
2022-11-16T10:43:32.612Z,8.12
2022-11-16T10:48:41.677Z,8.76
2022-11-16T10:53:43.657Z,6.87
2022-11-16T10:59:04.757Z,6.09
2022-11-16T11:04:13.730Z,8.34
2022-11-16T11:09:20.741Z,8.76
2022-11-16T11:14:22.034Z,6.97
2022-11-16T11:19:26.737Z,6.65
2022-11-16T11:24:43.922Z,8.61
2022-11-16T11:29:55.618Z,7.75
2022-11-16T11:34:59.538Z,6.55
2022-11-16T11:40:23.831Z,8.15
2022-11-16T11:45:48.995Z,7.85
2022-11-16T11:50:56.967Z,6.35
2022-11-16T11:55:59.100Z,7.42
2022-11-16T12:01:25.248Z,6.19
2022-11-16T12:06:45.707Z,6.98
2022-11-16T12:11:52.913Z,8.68
2022-11-16T12:16:56.998Z,7.68
2022-11-16T12:22:24.038Z,6.15
2022-11-16T12:27:39.278Z,7.70
2022-11-16T12:33:20.805Z,7.10
2022-11-16T12:38:46.858Z,5.85
2022-11-16T12:44:12.042Z,7.63
2022-11-16T12:49:36.330Z,6.65
2022-11-16T12:54:57.725Z,5.47
2022-11-16T13:00:05.060Z,7.12
2022-11-16T13:05:19.454Z,7.15
2022-11-16T13:10:27.204Z,5.72
2022-11-16T13:15:33.878Z,6.70
2022-11-16T13:20:50.617Z,7.35
2022-11-16T13:26:04.097Z,6.07
2022-11-16T13:31:17.739Z,6.79
2022-11-16T13:36:47.672Z,7.33
2022-11-16T13:42:03.851Z,5.65
2022-11-16T13:47:17.366Z,6.22
2022-11-16T13:52:40.193Z,7.94
2022-11-16T13:57:50.629Z,6.67
2022-11-16T14:03:16.596Z,5.59
2022-11-16T14:08:23.612Z,7.50
2022-11-16T14:13:46.547Z,8.14
2022-11-16T14:18:51.541Z,6.15
2022-11-16T14:24:18.000Z,5.43
2022-11-16T14:29:57.031Z,6.59
2022-11-16T14:35:04.337Z,5.65
2022-11-16T14:40:16.119Z,5.45
2022-11-16T14:45:23.986Z,7.33
2022-11-16T14:50:26.473Z,6.52
2022-11-16T14:55:27.833Z,5.11
2022-11-16T15:00:29.605Z,5.37
2022-11-16T15:05:35.959Z,6.03
2022-11-16T15:10:48.159Z,5.97
2022-11-16T15:16:17.724Z,5.05
2022-11-16T15:21:24.544Z,6.16
2022-11-16T15:26:25.780Z,6.45
2022-11-16T15:31:28.240Z,5.25
2022-11-16T15:36:38.759Z,6.37
2022-11-16T15:41:40.808Z,6.68
2022-11-16T15:46:54.103Z,5.13
2022-11-16T15:51:59.926Z,6.23
2022-11-16T15:57:07.608Z,5.87
2022-11-16T16:02:18.274Z,5.02
2022-11-16T16:07:39.304Z,7.29
2022-11-16T16:12:50.245Z,6.71
2022-11-16T16:17:53.273Z,5.17
2022-11-16T16:23:24.901Z,5.51
2022-11-16T16:28:26.456Z,8.22
2022-11-16T16:33:29.109Z,8.42
2022-11-16T16:38:31.924Z,6.43
2022-11-16T16:43:34.039Z,5.22
2022-11-16T16:48:38.030Z,6.25
2022-11-16T16:53:44.069Z,8.49
2022-11-16T16:58:45.507Z,7.73
2022-11-16T17:03:47.414Z,5.94
2022-11-16T17:08:48.629Z,5.03
2022-11-16T17:13:49.769Z,7.12
2022-11-16T17:18:55.383Z,7.96
2022-11-16T17:23:56.788Z,6.03
2022-11-16T17:28:58.108Z,5.28
2022-11-16T17:33:59.844Z,7.53
2022-11-16T17:39:01.287Z,7.92
2022-11-16T17:44:03.544Z,6.06
2022-11-16T17:49:05.248Z,4.96
2022-11-16T17:54:06.690Z,6.64
2022-11-16T17:59:08.064Z,8.56
2022-11-16T18:04:09.617Z,7.13
2022-11-16T18:09:10.872Z,5.51
2022-11-16T18:14:12.106Z,5.87
2022-11-16T18:19:16.419Z,8.23
2022-11-16T18:24:17.813Z,7.14
2022-11-16T18:29:19.007Z,5.42
2022-11-16T18:34:20.262Z,4.95
2022-11-16T18:39:21.367Z,7.61
2022-11-16T18:44:22.530Z,8.10
2022-11-16T18:49:23.669Z,6.14
2022-11-16T18:54:24.832Z,5.01
2022-11-16T18:59:26.465Z,4.40
2022-11-16T19:04:27.959Z,6.75
2022-11-16T19:09:29.176Z,8.95
2022-11-16T19:14:30.637Z,7.72
2022-11-16T19:19:31.774Z,5.89
2022-11-16T19:24:33.137Z,5.12
2022-11-16T19:29:35.972Z,7.19
2022-11-16T19:34:37.487Z,7.93
2022-11-16T19:39:38.939Z,6.06
2022-11-16T19:44:40.260Z,4.92
2022-11-16T19:49:41.500Z,5.78
2022-11-16T19:54:42.972Z,8.13
2022-11-16T19:59:44.329Z,7.44
2022-11-16T20:04:45.538Z,5.69
2022-11-16T20:09:53.126Z,4.73
2022-11-16T20:14:54.681Z,5.20
2022-11-16T20:19:55.871Z,7.76
2022-11-16T20:24:56.904Z,7.86
2022-11-16T20:29:58.095Z,6.02
2022-11-16T20:34:59.519Z,4.89
2022-11-16T20:40:00.633Z,6.40
2022-11-16T20:45:03.007Z,7.89
2022-11-16T20:50:05.163Z,6.36
2022-11-16T20:55:10.113Z,5.07
2022-11-16T21:00:14.874Z,5.46
2022-11-16T21:05:16.074Z,7.70
2022-11-16T21:10:20.254Z,6.26
2022-11-16T21:15:21.469Z,4.93
2022-11-16T21:20:28.172Z,5.48
2022-11-16T21:25:29.876Z,7.56
2022-11-16T21:30:31.467Z,7.72
2022-11-16T21:35:32.902Z,5.82
2022-11-16T21:40:34.073Z,5.00
2022-11-16T21:45:35.511Z,7.09
2022-11-16T21:50:37.395Z,6.65
2022-11-16T21:55:38.523Z,5.09
2022-11-16T22:00:40.221Z,6.05
2022-11-16T22:06:01.164Z,5.52
2022-11-16T22:11:02.626Z,4.80
2022-11-16T22:16:16.820Z,7.28
2022-11-16T22:21:19.543Z,7.43
2022-11-16T22:26:20.760Z,5.56
2022-11-16T22:31:21.895Z,4.59
2022-11-16T22:36:24.116Z,6.26
2022-11-16T22:41:25.745Z,6.85
2022-11-16T22:46:27.036Z,5.28
2022-11-16T22:51:30.030Z,4.46
2022-11-16T22:56:33.566Z,6.48
2022-11-16T23:01:38.357Z,6.30
2022-11-16T23:06:40.485Z,4.82
2022-11-16T23:11:59.800Z,4.30
2022-11-16T23:17:03.305Z,6.51
2022-11-16T23:22:24.806Z,7.05
2022-11-16T23:27:37.543Z,5.37
2022-11-16T23:32:39.865Z,4.44
2022-11-16T23:38:00.460Z,6.13
2022-11-16T23:43:20.757Z,6.49
2022-11-16T23:48:22.187Z,4.87
2022-11-16T23:53:23.283Z,4.82
2022-11-16T23:58:24.316Z,7.19
